Huvudsida
METAR-TAF:

METAR-TAF

Flygplatser :

Skellefteå Airport

Skellefteå, Sverige

latitud: 64-38N, longitud: 021-05E, höjd: 49 m

Aktuellt väderrapport

Denna rapport gjordes för 34 minuter sedan, klockan 18:20 UTC
Vind 2 kt från väst
Temperatur -4°C
Fuktighet 100%
Tryck 991 hPa
Sikt 10 km eller mer
Inga moln under 1 500 m eller inga cumulonimbus

METAR: ESNS 231820Z 26002KT CAVOK M04/M04 Q0991

Tid: 20:54 (18:54 UTC)

Väderprognos

Denna rapport gjordes för 1 timme och 24 minuter sedan, klockan 17:30 UTC
Prognos gäller från 23 kl. 18 UTC till 23 kl. 22 UTC
Vind 4 kt från väst
Sikt 10 km eller mer
Inga moln under 1 500 m eller inga cumulonimbus

TAF: ESNS 231730Z 2318/2322 26004KT CAVOK

Aktuella väderrapporter och prognoser från 4000 flygplatser (METAR- och TAF-rapporter).

De tillgängliga stationerna syns som gula och röda prickar på kartan.

För musen över prickarna för att se namnen på stationerna.

Klicka sedan för att få väderrapporter och prognoser.

För att ändra kartan: Klicka på de gröna knapparna med ett svart kors på för att zooma in; den gröna knappen med ett streck på för att zooma ut; eller på de gröna pilarna för angränsande kartor.


METAR-TAF: